createdAt,value
2018-02-15T00:01:03.760Z,99.90
2018-02-15T00:03:30.955Z,99.90
2018-02-15T00:05:58.454Z,99.90
2018-02-15T00:08:25.239Z,99.90
2018-02-15T00:10:52.800Z,99.90
2018-02-15T00:13:22.069Z,99.90
2018-02-15T00:15:50.368Z,99.90
2018-02-15T00:18:17.340Z,99.90
2018-02-15T00:20:45.033Z,99.90
2018-02-15T00:23:12.492Z,99.90
2018-02-15T00:25:39.511Z,99.90
2018-02-15T00:28:06.489Z,99.90
2018-02-15T00:30:33.680Z,99.90
2018-02-15T00:33:00.512Z,99.90
2018-02-15T00:35:28.172Z,99.90
2018-02-15T00:37:56.692Z,99.90
2018-02-15T00:40:23.649Z,99.90
2018-02-15T00:42:50.494Z,99.90
2018-02-15T00:45:18.152Z,99.90
2018-02-15T00:47:45.216Z,99.90
2018-02-15T00:50:12.240Z,99.90
2018-02-15T00:52:40.528Z,99.90
2018-02-15T00:55:07.907Z,99.90
2018-02-15T00:57:34.608Z,99.90
2018-02-15T01:00:01.324Z,99.90
2018-02-15T01:02:27.948Z,99.90
2018-02-15T01:04:54.731Z,99.90
2018-02-15T01:07:21.469Z,99.90
2018-02-15T01:09:48.108Z,99.90
2018-02-15T01:12:15.064Z,99.90
2018-02-15T01:14:42.640Z,99.90
2018-02-15T01:17:09.288Z,99.90
2018-02-15T01:19:36.304Z,99.90
2018-02-15T01:22:03.025Z,99.90
2018-02-15T01:24:29.726Z,99.90
2018-02-15T01:26:56.492Z,99.90
2018-02-15T01:29:23.320Z,99.90
2018-02-15T01:31:50.362Z,99.90
2018-02-15T01:34:17.324Z,99.90
2018-02-15T01:36:44.910Z,99.90
2018-02-15T01:39:11.927Z,99.90
2018-02-15T01:41:39.826Z,99.90
2018-02-15T01:44:06.453Z,99.90
2018-02-15T01:46:33.701Z,99.90
2018-02-15T01:49:00.414Z,99.90
2018-02-15T01:51:28.267Z,99.90
2018-02-15T01:53:55.660Z,99.90
2018-02-15T01:56:22.550Z,99.90
2018-02-15T01:58:49.553Z,99.90
2018-02-15T02:01:16.198Z,99.90
2018-02-15T02:03:42.955Z,99.80
2018-02-15T02:06:09.687Z,99.90
2018-02-15T02:08:36.482Z,99.90
2018-02-15T02:11:04.142Z,99.90
2018-02-15T02:13:31.284Z,99.90
2018-02-15T02:16:04.895Z,99.80
2018-02-15T02:18:32.707Z,99.90
2018-02-15T02:21:00.335Z,99.90
2018-02-15T02:23:27.851Z,99.90
2018-02-15T02:25:55.666Z,99.90
2018-02-15T02:28:23.166Z,99.90
2018-02-15T02:30:50.880Z,99.80
2018-02-15T02:33:17.631Z,99.70
2018-02-15T02:35:44.557Z,99.90
2018-02-15T02:38:11.260Z,99.70
2018-02-15T02:40:38.052Z,99.60
2018-02-15T02:43:05.139Z,99.40
2018-02-15T02:45:32.113Z,99.60
2018-02-15T02:47:58.836Z,99.70
2018-02-15T02:50:25.767Z,99.80
2018-02-15T02:52:52.535Z,99.80
2018-02-15T02:55:19.925Z,99.60
2018-02-15T02:57:47.386Z,99.50
2018-02-15T03:00:14.436Z,99.50
2018-02-15T03:02:41.145Z,99.60
2018-02-15T03:05:07.865Z,99.50
2018-02-15T03:07:34.609Z,99.40
2018-02-15T03:10:01.289Z,99.20
2018-02-15T03:12:28.564Z,99.50
2018-02-15T03:14:55.318Z,99.80
2018-02-15T03:17:21.961Z,99.80
2018-02-15T03:19:48.964Z,99.70
2018-02-15T03:22:16.097Z,99.50
2018-02-15T03:24:42.765Z,99.50
2018-02-15T03:27:09.850Z,99.60
2018-02-15T03:29:36.480Z,99.60
2018-02-15T03:32:03.225Z,99.60
2018-02-15T03:34:30.021Z,99.60
2018-02-15T03:36:57.489Z,99.50
2018-02-15T03:39:24.888Z,99.50
2018-02-15T03:41:51.740Z,99.50
2018-02-15T03:44:18.436Z,99.50
2018-02-15T03:46:45.307Z,99.70
2018-02-15T03:49:11.996Z,99.80
2018-02-15T03:51:39.023Z,99.50
2018-02-15T03:54:07.481Z,99.60
2018-02-15T03:56:35.069Z,99.60
2018-02-15T03:59:01.817Z,99.60
2018-02-15T04:01:28.874Z,99.60
2018-02-15T04:03:56.947Z,99.50
2018-02-15T04:06:24.002Z,99.50
2018-02-15T04:08:50.934Z,99.30
2018-02-15T04:11:18.109Z,99.30
2018-02-15T04:13:44.936Z,99.40
2018-02-15T04:16:11.811Z,99.30
2018-02-15T04:18:38.938Z,99.30
2018-02-15T04:21:06.575Z,99.40
2018-02-15T04:23:34.094Z,99.40
2018-02-15T04:26:00.927Z,99.40
2018-02-15T04:28:27.596Z,99.40
2018-02-15T04:30:54.488Z,99.40
2018-02-15T04:33:21.395Z,99.40
2018-02-15T04:35:48.028Z,99.20
2018-02-15T04:38:15.108Z,99.20
2018-02-15T04:40:42.869Z,99.00
2018-02-15T04:43:09.785Z,99.00
2018-02-15T04:45:36.460Z,98.90
2018-02-15T04:48:03.258Z,98.60
2018-02-15T04:50:29.895Z,98.40
2018-02-15T04:52:56.876Z,98.40
2018-02-15T04:55:23.909Z,98.40
2018-02-15T04:57:50.629Z,98.40
2018-02-15T05:00:17.351Z,98.50
2018-02-15T05:02:44.045Z,98.60
2018-02-15T05:05:11.521Z,99.00
2018-02-15T05:07:38.345Z,98.90
2018-02-15T05:10:05.281Z,99.00
2018-02-15T05:12:32.263Z,99.20
2018-02-15T05:14:59.831Z,99.20
2018-02-15T05:17:27.437Z,99.30
2018-02-15T05:19:54.576Z,99.30
2018-02-15T05:22:21.308Z,99.20
2018-02-15T05:24:49.186Z,99.30
2018-02-15T05:27:16.145Z,99.20
2018-02-15T05:29:43.230Z,99.00
2018-02-15T05:32:10.858Z,98.90
2018-02-15T05:34:38.120Z,98.80
2018-02-15T05:37:06.776Z,98.90
2018-02-15T05:39:34.887Z,99.20
2018-02-15T05:42:01.896Z,99.00
2018-02-15T05:44:29.888Z,99.00
2018-02-15T05:46:56.632Z,99.00
2018-02-15T05:49:24.040Z,98.50
2018-02-15T05:51:51.139Z,98.50
2018-02-15T05:54:18.100Z,98.40
2018-02-15T05:56:45.094Z,98.40
2018-02-15T05:59:12.339Z,98.30
2018-02-15T06:01:39.194Z,98.30
2018-02-15T06:04:06.224Z,98.50
2018-02-15T06:06:32.986Z,99.20
2018-02-15T06:08:59.835Z,98.90
2018-02-15T06:11:26.863Z,98.80
2018-02-15T06:13:55.275Z,98.80
2018-02-15T06:16:22.428Z,98.80
2018-02-15T06:18:49.669Z,98.70
2018-02-15T06:21:16.740Z,98.60
2018-02-15T06:23:44.593Z,98.40
2018-02-15T06:26:12.173Z,98.50
2018-02-15T06:28:39.538Z,98.90
2018-02-15T06:31:08.571Z,98.90
2018-02-15T06:33:36.403Z,98.50
2018-02-15T06:36:06.332Z,98.90
2018-02-15T06:38:33.378Z,98.90
2018-02-15T06:41:00.227Z,99.00
2018-02-15T06:43:27.379Z,98.80
2018-02-15T06:45:56.073Z,98.80
2018-02-15T06:48:23.966Z,98.90
2018-02-15T06:50:50.839Z,98.80
2018-02-15T06:53:17.539Z,98.90
2018-02-15T06:55:44.164Z,99.00
2018-02-15T06:58:11.009Z,99.00
2018-02-15T07:00:38.694Z,99.10
2018-02-15T07:03:05.749Z,99.00
2018-02-15T07:05:32.495Z,99.30
2018-02-15T07:07:59.847Z,99.30
2018-02-15T07:10:26.642Z,99.40
2018-02-15T07:12:54.061Z,99.40
2018-02-15T07:15:20.811Z,99.30
2018-02-15T07:17:47.557Z,99.00
2018-02-15T07:20:15.736Z,98.90
2018-02-15T07:22:42.836Z,98.90
2018-02-15T07:25:09.618Z,98.90
2018-02-15T07:27:37.316Z,99.20
2018-02-15T07:30:04.035Z,99.10
2018-02-15T07:32:30.797Z,98.90
2018-02-15T07:34:57.749Z,99.30
2018-02-15T07:40:11.484Z,99.70
2018-02-15T07:42:38.969Z,98.90
2018-02-15T07:45:05.712Z,98.90
2018-02-15T07:47:32.662Z,98.70
2018-02-15T07:50:00.305Z,98.70
2018-02-15T07:52:27.183Z,98.60
2018-02-15T07:54:54.132Z,98.80
2018-02-15T07:57:21.083Z,98.40
2018-02-15T07:59:49.158Z,98.10
2018-02-15T08:02:15.995Z,97.50
2018-02-15T08:04:43.032Z,99.20
2018-02-15T08:07:11.122Z,97.80
2018-02-15T08:09:38.090Z,99.10
2018-02-15T08:12:05.346Z,99.20
2018-02-15T08:14:33.933Z,98.90
2018-02-15T08:17:02.113Z,98.90
2018-02-15T08:19:30.158Z,97.60
2018-02-15T08:21:58.512Z,97.70
2018-02-15T08:24:26.140Z,97.60
2018-02-15T08:26:53.176Z,96.80
2018-02-15T08:29:20.026Z,96.70
2018-02-15T08:31:47.194Z,97.20
2018-02-15T08:34:14.147Z,96.90
2018-02-15T08:36:41.159Z,97.90
2018-02-15T08:39:07.818Z,97.60
2018-02-15T08:41:35.411Z,98.30
2018-02-15T08:44:02.130Z,98.20
2018-02-15T08:46:29.925Z,97.70
2018-02-15T08:48:56.658Z,97.60
2018-02-15T08:51:23.621Z,96.60
2018-02-15T08:53:50.378Z,97.20
2018-02-15T08:56:17.131Z,97.00
2018-02-15T08:58:44.893Z,97.60
2018-02-15T09:01:12.446Z,97.30
2018-02-15T09:03:39.709Z,97.20
2018-02-15T09:06:06.759Z,97.40
2018-02-15T09:08:33.913Z,97.70
2018-02-15T09:11:00.765Z,98.50
2018-02-15T09:13:28.126Z,97.20
2018-02-15T09:15:55.690Z,97.10
2018-02-15T09:18:23.208Z,97.10
2018-02-15T09:20:50.203Z,96.40
2018-02-15T09:23:17.462Z,96.20
2018-02-15T09:25:44.415Z,96.90
2018-02-15T09:28:12.080Z,95.60
2018-02-15T09:30:38.931Z,95.90
2018-02-15T09:33:05.780Z,94.90
2018-02-15T09:35:32.728Z,95.40
2018-02-15T09:38:00.088Z,94.90
2018-02-15T09:40:26.835Z,95.10
2018-02-15T09:42:53.887Z,94.80
2018-02-15T09:45:23.528Z,95.20
2018-02-15T09:47:50.552Z,95.50
2018-02-15T09:50:17.809Z,94.80
2018-02-15T09:52:45.173Z,94.60
2018-02-15T09:55:12.019Z,94.00
2018-02-15T09:57:38.716Z,94.00
2018-02-15T10:00:06.024Z,94.30
2018-02-15T10:02:33.668Z,94.10
2018-02-15T10:05:01.431Z,94.00
2018-02-15T10:07:29.536Z,93.90
2018-02-15T10:09:56.387Z,93.80
2018-02-15T10:12:23.646Z,93.80
2018-02-15T10:14:51.314Z,94.00
2018-02-15T10:17:20.001Z,93.80
2018-02-15T10:19:46.848Z,93.70
2018-02-15T10:22:22.093Z,93.30
2018-02-15T10:24:49.016Z,93.20
2018-02-15T10:27:19.009Z,92.80
2018-02-15T10:29:47.957Z,92.90
2018-02-15T10:32:15.726Z,92.90
2018-02-15T10:34:43.498Z,92.80
2018-02-15T10:37:11.981Z,91.60
2018-02-15T10:39:39.550Z,91.60
2018-02-15T10:42:07.406Z,91.90
2018-02-15T10:44:35.089Z,92.10
2018-02-15T10:47:02.141Z,92.10
2018-02-15T10:49:28.885Z,91.90
2018-02-15T10:51:55.949Z,92.10
2018-02-15T10:54:22.787Z,91.50
2018-02-15T10:56:49.840Z,91.50
2018-02-15T10:59:16.811Z,91.70
2018-02-15T11:01:43.639Z,91.50
2018-02-15T11:04:17.059Z,91.60
2018-02-15T11:06:45.461Z,91.30
2018-02-15T11:09:12.348Z,91.40
2018-02-15T11:11:41.065Z,91.60
2018-02-15T11:14:08.851Z,91.60
2018-02-15T11:16:35.695Z,92.60
2018-02-15T11:19:02.837Z,92.40
2018-02-15T11:21:30.913Z,92.60
2018-02-15T11:23:58.276Z,92.60
2018-02-15T11:26:26.577Z,92.10
2018-02-15T11:28:55.068Z,92.10
2018-02-15T11:31:22.299Z,91.40
2018-02-15T11:33:49.659Z,91.40
2018-02-15T11:36:17.837Z,90.70
2018-02-15T11:38:46.143Z,90.40
2018-02-15T11:41:13.258Z,89.20
2018-02-15T11:43:41.559Z,88.30
2018-02-15T11:46:08.712Z,87.90
2018-02-15T11:48:36.368Z,88.40
2018-02-15T11:51:03.841Z,87.90
2018-02-15T11:53:30.894Z,88.80
2018-02-15T11:55:57.751Z,88.70
2018-02-15T11:58:26.126Z,88.50
2018-02-15T12:00:54.728Z,89.00
2018-02-15T12:03:21.872Z,90.30
2018-02-15T12:05:49.640Z,89.90
2018-02-15T12:08:17.003Z,89.50
2018-02-15T12:10:44.054Z,90.10
2018-02-15T12:13:12.236Z,89.80
2018-02-15T12:15:39.387Z,89.60
2018-02-15T12:18:06.343Z,88.60
2018-02-15T12:20:33.088Z,88.80
2018-02-15T12:23:00.446Z,88.30
2018-02-15T12:25:28.116Z,88.40
2018-02-15T12:27:55.165Z,90.00
2018-02-15T12:30:21.992Z,90.30
2018-02-15T12:32:49.477Z,90.00
2018-02-15T12:35:16.326Z,90.00
2018-02-15T12:37:43.379Z,89.80
2018-02-15T12:40:10.330Z,88.40
2018-02-15T12:42:38.412Z,90.00
2018-02-15T12:45:05.464Z,88.60
2018-02-15T12:47:32.197Z,88.70
2018-02-15T12:49:59.975Z,88.80
2018-02-15T12:52:27.751Z,88.00
2018-02-15T12:54:54.593Z,89.80
2018-02-15T12:57:22.469Z,89.10
2018-02-15T12:59:51.057Z,89.40
2018-02-15T13:02:17.902Z,89.40
2018-02-15T13:04:45.982Z,88.70
2018-02-15T13:07:14.980Z,89.80
2018-02-15T13:09:42.648Z,88.90
2018-02-15T13:12:21.977Z,89.70
2018-02-15T13:14:48.931Z,90.00
2018-02-15T13:17:16.473Z,88.50
2018-02-15T13:19:56.443Z,90.10
2018-02-15T13:22:35.468Z,90.10
2018-02-15T13:25:02.418Z,90.10
2018-02-15T13:27:42.058Z,90.10
2018-02-15T13:30:09.830Z,90.50
2018-02-15T13:32:38.213Z,90.20
2018-02-15T13:35:05.280Z,90.20
2018-02-15T13:37:32.114Z,90.10
2018-02-15T13:39:59.066Z,90.10
2018-02-15T13:42:26.937Z,90.50
2018-02-15T13:44:54.605Z,90.30
2018-02-15T13:47:21.348Z,90.60
2018-02-15T13:49:48.507Z,91.00
2018-02-15T13:52:15.455Z,91.10
2018-02-15T13:54:43.124Z,91.30
2018-02-15T13:57:10.585Z,91.40
2018-02-15T13:59:37.434Z,91.40
2018-02-15T14:02:05.953Z,91.10
2018-02-15T14:04:33.178Z,91.30
2018-02-15T14:06:59.924Z,91.30
2018-02-15T14:09:27.696Z,91.30
2018-02-15T14:11:54.544Z,91.40
2018-02-15T14:14:21.697Z,91.70
2018-02-15T14:16:49.783Z,91.20
2018-02-15T14:19:16.934Z,91.50
2018-02-15T14:21:44.906Z,91.80
2018-02-15T14:24:12.983Z,91.90
2018-02-15T14:26:41.062Z,91.90
2018-02-15T14:29:08.908Z,92.00
2018-02-15T14:31:37.929Z,92.10
2018-02-15T14:34:05.703Z,92.10
2018-02-15T14:36:32.856Z,92.30
2018-02-15T14:38:59.910Z,92.40
2018-02-15T14:41:26.958Z,92.40
2018-02-15T14:43:53.707Z,92.50
2018-02-15T14:46:20.457Z,92.60
2018-02-15T14:48:47.520Z,92.70
2018-02-15T14:51:14.866Z,92.90
2018-02-15T14:53:41.920Z,92.80
2018-02-15T14:56:09.658Z,92.30
2018-02-15T14:58:37.563Z,92.90
2018-02-15T15:01:04.715Z,92.90
2018-02-15T15:03:32.280Z,93.20
2018-02-15T15:05:59.331Z,93.20
2018-02-15T15:08:26.796Z,93.70
2018-02-15T15:10:56.708Z,93.60
2018-02-15T15:13:24.964Z,93.50
2018-02-15T15:15:52.867Z,93.70
2018-02-15T15:18:20.043Z,93.70
2018-02-15T15:20:47.386Z,93.60
2018-02-15T15:23:14.440Z,93.50
2018-02-15T15:25:41.391Z,93.60
2018-02-15T15:28:08.649Z,93.70
2018-02-15T15:30:35.595Z,93.70
2018-02-15T15:33:03.063Z,94.00
2018-02-15T15:35:30.222Z,94.10
2018-02-15T15:37:57.679Z,94.30
2018-02-15T15:40:25.660Z,94.40
2018-02-15T15:42:53.733Z,94.60
2018-02-15T15:45:20.886Z,94.80
2018-02-15T15:47:48.346Z,95.00
2018-02-15T15:50:15.810Z,94.60
2018-02-15T15:52:48.514Z,94.70
2018-02-15T15:55:23.699Z,94.60
2018-02-15T15:58:02.489Z,94.40
2018-02-15T16:00:36.353Z,94.30
2018-02-15T16:03:05.872Z,94.20
2018-02-15T16:05:33.708Z,94.20
2018-02-15T16:08:01.818Z,94.10
2018-02-15T16:10:29.693Z,93.80
2018-02-15T16:12:56.951Z,93.70
2018-02-15T16:15:23.795Z,93.80
2018-02-15T16:17:50.857Z,93.60
2018-02-15T16:20:17.699Z,93.50
2018-02-15T16:22:44.544Z,93.50
2018-02-15T16:25:12.626Z,93.90
2018-02-15T16:27:39.372Z,93.60
2018-02-15T16:30:06.378Z,93.80
2018-02-15T16:32:33.996Z,94.00
2018-02-15T16:35:00.844Z,93.60
2018-02-15T16:37:27.789Z,93.70
2018-02-15T16:39:55.869Z,93.30
2018-02-15T16:42:23.841Z,93.30
2018-02-15T16:44:50.785Z,93.60
2018-02-15T16:47:17.576Z,93.80
2018-02-15T16:49:45.000Z,93.60
2018-02-15T16:52:13.777Z,93.30
2018-02-15T16:54:41.457Z,93.30
2018-02-15T16:57:09.636Z,93.10
2018-02-15T16:59:36.383Z,92.90
2018-02-15T17:02:03.537Z,93.00
2018-02-15T17:04:30.260Z,92.40
2018-02-15T17:06:58.155Z,92.80
2018-02-15T17:09:25.209Z,92.80
2018-02-15T17:11:52.653Z,92.50
2018-02-15T17:14:19.729Z,92.80
2018-02-15T17:16:47.344Z,92.60
2018-02-15T17:19:14.146Z,92.60
2018-02-15T17:21:41.402Z,92.80
2018-02-15T17:24:08.554Z,92.60
2018-02-15T17:26:35.408Z,92.70
2018-02-15T17:29:03.480Z,93.10
2018-02-15T17:31:31.240Z,92.70
2018-02-15T17:33:58.201Z,92.70
2018-02-15T17:36:26.082Z,92.40
2018-02-15T17:38:54.047Z,92.80
2018-02-15T17:41:23.451Z,92.60
2018-02-15T17:43:50.523Z,92.50
2018-02-15T17:46:18.172Z,92.70
2018-02-15T17:48:46.980Z,92.70
2018-02-15T17:51:15.553Z,92.50
2018-02-15T17:53:43.322Z,92.80
2018-02-15T17:56:11.041Z,92.80
2018-02-15T17:58:38.247Z,93.00
2018-02-15T18:01:06.046Z,92.90
2018-02-15T18:03:33.684Z,93.40
2018-02-15T18:06:00.945Z,92.90
2018-02-15T18:08:30.066Z,93.00
2018-02-15T18:10:57.476Z,93.00
2018-02-15T18:13:25.790Z,93.10
2018-02-15T18:15:52.530Z,93.00
2018-02-15T18:18:20.304Z,93.10
2018-02-15T18:20:46.991Z,93.10
2018-02-15T18:23:13.795Z,93.40
2018-02-15T18:25:40.653Z,93.30
2018-02-15T18:28:07.597Z,93.20
2018-02-15T18:30:34.751Z,93.40
2018-02-15T18:33:02.323Z,93.20
2018-02-15T18:35:31.712Z,93.30
2018-02-15T18:38:02.814Z,93.30
2018-02-15T18:40:32.335Z,93.20
2018-02-15T18:43:03.459Z,93.30
2018-02-15T18:45:32.111Z,93.30
2018-02-15T18:48:01.985Z,93.30
2018-02-15T18:50:32.547Z,93.40
2018-02-15T18:53:02.370Z,93.50
2018-02-15T18:55:32.758Z,93.60
2018-02-15T18:58:02.565Z,93.60
2018-02-15T19:00:31.851Z,93.70
2018-02-15T19:03:02.028Z,94.00
2018-02-15T19:05:33.085Z,94.00
2018-02-15T19:08:03.191Z,93.90
2018-02-15T19:10:32.251Z,94.00
2018-02-15T19:13:01.420Z,94.00
2018-02-15T19:15:32.030Z,94.30
2018-02-15T19:18:01.896Z,94.60
2018-02-15T19:20:31.537Z,94.50
2018-02-15T19:23:29.104Z,94.80
2018-02-15T19:26:00.901Z,94.80
2018-02-15T19:28:29.177Z,94.80
2018-02-15T19:30:56.030Z,94.80
2018-02-15T19:33:23.080Z,94.80
2018-02-15T19:35:49.915Z,95.40
2018-02-15T19:38:17.396Z,95.10
2018-02-15T19:40:45.468Z,95.30
2018-02-15T19:43:13.425Z,95.20
2018-02-15T19:45:41.113Z,95.10
2018-02-15T19:48:08.881Z,95.00
2018-02-15T19:50:36.752Z,95.00
2018-02-15T19:53:03.908Z,95.00
2018-02-15T19:55:30.758Z,95.20
2018-02-15T19:57:57.605Z,95.30
2018-02-15T20:00:25.986Z,95.30
2018-02-15T20:02:55.723Z,95.20
2018-02-15T20:05:23.063Z,95.10
2018-02-15T20:07:50.216Z,94.90
2018-02-15T20:10:17.888Z,95.00
2018-02-15T20:12:53.124Z,94.90
2018-02-15T20:15:20.381Z,94.70
2018-02-15T20:17:47.031Z,94.70
2018-02-15T20:20:21.373Z,94.70
2018-02-15T20:22:48.188Z,94.60
2018-02-15T20:25:17.481Z,94.40
2018-02-15T20:27:51.417Z,94.40
2018-02-15T20:30:18.881Z,93.30
2018-02-15T20:32:45.958Z,93.30
2018-02-15T20:35:16.146Z,92.50
2018-02-15T20:37:49.956Z,92.30
2018-02-15T20:40:25.405Z,91.60
2018-02-15T20:42:53.070Z,91.70
2018-02-15T20:45:20.328Z,91.70
2018-02-15T20:47:47.319Z,91.20
2018-02-15T20:50:20.496Z,90.90
2018-02-15T20:52:53.311Z,91.10
2018-02-15T20:55:27.628Z,91.20
2018-02-15T20:57:55.958Z,91.00
2018-02-15T21:00:22.911Z,91.00
2018-02-15T21:02:49.770Z,91.20
2018-02-15T21:05:16.605Z,91.30
2018-02-15T21:07:44.272Z,91.40
2018-02-15T21:10:11.431Z,91.20
2018-02-15T21:12:38.260Z,91.30
2018-02-15T21:15:05.945Z,91.00
2018-02-15T21:17:32.795Z,91.00
2018-02-15T21:20:00.459Z,91.00
2018-02-15T21:22:27.314Z,91.10
2018-02-15T21:24:54.469Z,90.90
2018-02-15T21:27:21.312Z,91.00
2018-02-15T21:29:48.061Z,91.10
2018-02-15T21:32:14.906Z,91.20
2018-02-15T21:34:42.519Z,90.80
2018-02-15T21:37:09.154Z,90.60
2018-02-15T21:39:35.940Z,90.70
2018-02-15T21:42:03.838Z,90.70
2018-02-15T21:44:32.024Z,90.80
2018-02-15T21:46:59.172Z,90.60
2018-02-15T21:49:26.224Z,90.30
2018-02-15T21:51:53.892Z,90.40
2018-02-15T21:54:20.740Z,90.60
2018-02-15T21:56:47.693Z,90.70
2018-02-15T21:59:14.931Z,90.50
2018-02-15T22:01:42.820Z,90.70
2018-02-15T22:04:09.497Z,90.70
2018-02-15T22:06:37.438Z,90.70
2018-02-15T22:09:05.085Z,90.70
2018-02-15T22:11:33.083Z,91.10
2018-02-15T22:14:00.749Z,91.00
2018-02-15T22:16:27.801Z,91.00
2018-02-15T22:18:54.549Z,90.70
2018-02-15T22:21:21.399Z,90.90
2018-02-15T22:23:48.248Z,90.90
2018-02-15T22:26:16.121Z,91.10
2018-02-15T22:28:43.481Z,91.00
2018-02-15T22:31:10.225Z,91.40
2018-02-15T22:33:37.071Z,91.30
2018-02-15T22:36:05.356Z,91.30
2018-02-15T22:38:32.398Z,91.40
2018-02-15T22:41:01.829Z,91.30
2018-02-15T22:43:28.868Z,91.20
2018-02-15T22:45:55.822Z,91.70
2018-02-15T22:48:22.667Z,91.40
2018-02-15T22:50:49.827Z,91.30
2018-02-15T22:53:16.980Z,91.40
2018-02-15T22:55:45.572Z,91.70
2018-02-15T22:58:12.288Z,91.60
2018-02-15T23:00:39.776Z,91.70
2018-02-15T23:03:07.036Z,91.70
2018-02-15T23:05:34.392Z,91.90
2018-02-15T23:08:01.246Z,92.00
2018-02-15T23:10:43.132Z,91.90
2018-02-15T23:13:12.130Z,91.90
2018-02-15T23:15:38.981Z,91.80
2018-02-15T23:18:05.810Z,92.10
2018-02-15T23:20:32.674Z,91.90
2018-02-15T23:23:00.341Z,92.10
2018-02-15T23:25:27.091Z,92.60
2018-02-15T23:27:54.756Z,92.20
2018-02-15T23:30:21.504Z,91.90
2018-02-15T23:32:48.557Z,91.90
2018-02-15T23:35:15.611Z,91.90
2018-02-15T23:37:42.384Z,91.70
2018-02-15T23:40:09.310Z,91.60
2018-02-15T23:42:36.462Z,91.60
2018-02-15T23:45:03.177Z,91.70
2018-02-15T23:47:30.340Z,91.80
2018-02-15T23:49:57.929Z,91.80
2018-02-15T23:52:24.675Z,92.10
2018-02-15T23:54:51.831Z,92.10
2018-02-15T23:57:19.194Z,91.80
2018-02-15T23:59:46.046Z,92.00
